Terminal Aerodrome Forecast
Issued by NWS

Home | Current Version | Previous Version | Text Only | Print | Product List | Glossary On
Versions: 1 2 3 4 5 6 7 8 9 10 11 12 13 14 15 16 17 18 19 20 21
000
FTUS45 KABQ 152300 RRA
TAFROW
TAF
KROW 152344Z 1600/1624 15007KT P6SM SCT025 SCT035
     FM160400 17005KT P6SM OVC020
     FM160900 VRB03KT P6SM VCFG OVC009
     FM161500 03005KT P6SM OVC015
     FM161700 12006KT P6SM BKN025
     FM162000 16006KT P6SM FEW030 SCT045=

USA.gov is the U.S. government's official web portal to all federal, state and local government web resources and services.